sensor_id;sensor_type;location;lat;lon;timestamp;temperature;humidity
16966;DHT22;8599;47.852;12.070;2022-10-16T00:01:36;14.80;99.90
16966;DHT22;8599;47.852;12.070;2022-10-16T00:04:04;14.80;99.90
16966;DHT22;8599;47.852;12.070;2022-10-16T00:06:32;14.70;99.90
16966;DHT22;8599;47.852;12.070;2022-10-16T00:08:59;14.80;99.90
16966;DHT22;8599;47.852;12.070;2022-10-16T00:11:29;14.90;99.90
16966;DHT22;8599;47.852;12.070;2022-10-16T00:13:57;14.90;99.90
16966;DHT22;8599;47.852;12.070;2022-10-16T00:16:24;14.90;99.90
16966;DHT22;8599;47.852;12.070;2022-10-16T00:18:51;14.80;99.90
16966;DHT22;8599;47.852;12.070;2022-10-16T00:21:20;14.80;99.90
16966;DHT22;8599;47.852;12.070;2022-10-16T00:23:51;14.80;99.90
16966;DHT22;8599;47.852;12.070;2022-10-16T00:26:19;14.80;99.90
16966;DHT22;8599;47.852;12.070;2022-10-16T00:28:46;14.70;99.90
16966;DHT22;8599;47.852;12.070;2022-10-16T00:31:14;14.70;99.90
16966;DHT22;8599;47.852;12.070;2022-10-16T00:33:41;14.70;99.90
16966;DHT22;8599;47.852;12.070;2022-10-16T00:36:11;14.70;99.90
16966;DHT22;8599;47.852;12.070;2022-10-16T00:38:38;14.60;99.90
16966;DHT22;8599;47.852;12.070;2022-10-16T00:41:07;14.50;99.90
16966;DHT22;8599;47.852;12.070;2022-10-16T00:43:39;14.60;99.90
16966;DHT22;8599;47.852;12.070;2022-10-16T00:46:13;14.60;99.90
16966;DHT22;8599;47.852;12.070;2022-10-16T00:48:42;14.50;99.90
16966;DHT22;8599;47.852;12.070;2022-10-16T00:51:10;14.40;99.90
16966;DHT22;8599;47.852;12.070;2022-10-16T00:53:37;14.70;99.90
16966;DHT22;8599;47.852;12.070;2022-10-16T00:56:06;14.60;99.90
16966;DHT22;8599;47.852;12.070;2022-10-16T00:58:33;14.50;99.90
16966;DHT22;8599;47.852;12.070;2022-10-16T01:01:00;14.40;99.90
16966;DHT22;8599;47.852;12.070;2022-10-16T01:03:28;14.50;99.90
16966;DHT22;8599;47.852;12.070;2022-10-16T01:06:09;14.50;99.90
16966;DHT22;8599;47.852;12.070;2022-10-16T01:08:46;14.40;99.90
16966;DHT22;8599;47.852;12.070;2022-10-16T01:11:22;14.30;99.90
16966;DHT22;8599;47.852;12.070;2022-10-16T01:13:53;14.20;99.90
16966;DHT22;8599;47.852;12.070;2022-10-16T01:16:25;14.20;99.90
16966;DHT22;8599;47.852;12.070;2022-10-16T01:18:57;14.20;99.90
16966;DHT22;8599;47.852;12.070;2022-10-16T01:21:30;14.20;99.90
16966;DHT22;8599;47.852;12.070;2022-10-16T01:24:03;14.30;99.90
16966;DHT22;8599;47.852;12.070;2022-10-16T01:26:50;14.30;99.90
16966;DHT22;8599;47.852;12.070;2022-10-16T01:29:23;14.30;99.90
16966;DHT22;8599;47.852;12.070;2022-10-16T01:31:55;14.30;99.90
16966;DHT22;8599;47.852;12.070;2022-10-16T01:34:27;14.20;99.90
16966;DHT22;8599;47.852;12.070;2022-10-16T01:37:02;14.10;99.90
16966;DHT22;8599;47.852;12.070;2022-10-16T01:39:34;14.10;99.90
16966;DHT22;8599;47.852;12.070;2022-10-16T01:42:07;14.10;99.90
16966;DHT22;8599;47.852;12.070;2022-10-16T01:44:36;14.10;99.90
16966;DHT22;8599;47.852;12.070;2022-10-16T01:47:05;14.20;99.90
16966;DHT22;8599;47.852;12.070;2022-10-16T01:49:35;14.20;99.90
16966;DHT22;8599;47.852;12.070;2022-10-16T01:52:06;14.10;99.90
16966;DHT22;8599;47.852;12.070;2022-10-16T01:54:36;14.20;99.90
16966;DHT22;8599;47.852;12.070;2022-10-16T01:57:05;14.20;99.90
16966;DHT22;8599;47.852;12.070;2022-10-16T01:59:36;14.20;99.90
16966;DHT22;8599;47.852;12.070;2022-10-16T02:02:08;14.20;99.90
16966;DHT22;8599;47.852;12.070;2022-10-16T02:04:39;14.20;99.90
16966;DHT22;8599;47.852;12.070;2022-10-16T02:07:07;14.20;99.90
16966;DHT22;8599;47.852;12.070;2022-10-16T02:09:35;14.20;99.90
16966;DHT22;8599;47.852;12.070;2022-10-16T02:12:08;14.30;99.90
16966;DHT22;8599;47.852;12.070;2022-10-16T02:14:39;14.30;99.90
16966;DHT22;8599;47.852;12.070;2022-10-16T02:17:11;14.30;99.90
16966;DHT22;8599;47.852;12.070;2022-10-16T02:19:38;14.30;99.90
16966;DHT22;8599;47.852;12.070;2022-10-16T02:22:09;14.30;99.90
16966;DHT22;8599;47.852;12.070;2022-10-16T02:24:41;14.30;99.90
16966;DHT22;8599;47.852;12.070;2022-10-16T02:27:12;14.20;99.90
16966;DHT22;8599;47.852;12.070;2022-10-16T02:29:43;14.10;99.90
16966;DHT22;8599;47.852;12.070;2022-10-16T02:32:15;14.00;99.90
16966;DHT22;8599;47.852;12.070;2022-10-16T02:34:43;14.00;99.90
16966;DHT22;8599;47.852;12.070;2022-10-16T02:37:10;14.00;99.90
16966;DHT22;8599;47.852;12.070;2022-10-16T02:39:38;14.10;99.90
16966;DHT22;8599;47.852;12.070;2022-10-16T02:42:10;14.00;99.90
16966;DHT22;8599;47.852;12.070;2022-10-16T02:44:37;14.00;99.90
16966;DHT22;8599;47.852;12.070;2022-10-16T02:47:05;14.00;99.90
16966;DHT22;8599;47.852;12.070;2022-10-16T02:49:32;14.00;99.90
16966;DHT22;8599;47.852;12.070;2022-10-16T02:51:59;14.00;99.90
16966;DHT22;8599;47.852;12.070;2022-10-16T02:54:26;14.10;99.90
16966;DHT22;8599;47.852;12.070;2022-10-16T02:56:52;14.10;99.90
16966;DHT22;8599;47.852;12.070;2022-10-16T02:59:19;14.10;99.90
16966;DHT22;8599;47.852;12.070;2022-10-16T03:01:46;14.10;99.90
16966;DHT22;8599;47.852;12.070;2022-10-16T03:04:14;14.10;99.90
16966;DHT22;8599;47.852;12.070;2022-10-16T03:06:41;14.10;99.90
16966;DHT22;8599;47.852;12.070;2022-10-16T03:09:08;14.10;99.90
16966;DHT22;8599;47.852;12.070;2022-10-16T03:11:35;14.10;99.90
16966;DHT22;8599;47.852;12.070;2022-10-16T03:14:02;14.10;99.90
16966;DHT22;8599;47.852;12.070;2022-10-16T03:16:28;14.10;99.90
16966;DHT22;8599;47.852;12.070;2022-10-16T03:18:55;14.20;99.90
16966;DHT22;8599;47.852;12.070;2022-10-16T03:21:24;14.20;99.90
16966;DHT22;8599;47.852;12.070;2022-10-16T03:23:50;14.20;99.90
16966;DHT22;8599;47.852;12.070;2022-10-16T03:26:17;14.20;99.90
16966;DHT22;8599;47.852;12.070;2022-10-16T03:28:44;14.20;99.90
16966;DHT22;8599;47.852;12.070;2022-10-16T03:31:11;14.10;99.90
16966;DHT22;8599;47.852;12.070;2022-10-16T03:33:38;14.10;99.90
16966;DHT22;8599;47.852;12.070;2022-10-16T03:36:05;14.10;99.90
16966;DHT22;8599;47.852;12.070;2022-10-16T03:38:33;14.10;99.90
16966;DHT22;8599;47.852;12.070;2022-10-16T03:41:00;14.10;99.90
16966;DHT22;8599;47.852;12.070;2022-10-16T03:43:27;14.10;99.90
16966;DHT22;8599;47.852;12.070;2022-10-16T03:45:53;14.20;99.90
16966;DHT22;8599;47.852;12.070;2022-10-16T03:48:20;14.20;99.90
16966;DHT22;8599;47.852;12.070;2022-10-16T03:50:47;14.20;99.90
16966;DHT22;8599;47.852;12.070;2022-10-16T03:53:14;14.30;99.90
16966;DHT22;8599;47.852;12.070;2022-10-16T03:55:43;14.20;99.90
16966;DHT22;8599;47.852;12.070;2022-10-16T03:58:10;14.20;99.90
16966;DHT22;8599;47.852;12.070;2022-10-16T04:00:40;14.10;99.90
16966;DHT22;8599;47.852;12.070;2022-10-16T04:03:07;14.10;99.90
16966;DHT22;8599;47.852;12.070;2022-10-16T04:05:33;14.10;99.90
16966;DHT22;8599;47.852;12.070;2022-10-16T04:08:00;14.10;99.90
16966;DHT22;8599;47.852;12.070;2022-10-16T04:10:27;14.10;99.90
16966;DHT22;8599;47.852;12.070;2022-10-16T04:12:55;14.10;99.90
16966;DHT22;8599;47.852;12.070;2022-10-16T04:15:22;14.00;99.90
16966;DHT22;8599;47.852;12.070;2022-10-16T04:17:49;14.10;99.90
16966;DHT22;8599;47.852;12.070;2022-10-16T04:20:17;14.10;99.90
16966;DHT22;8599;47.852;12.070;2022-10-16T04:22:44;14.10;99.90
16966;DHT22;8599;47.852;12.070;2022-10-16T04:25:11;14.10;99.90
16966;DHT22;8599;47.852;12.070;2022-10-16T04:27:38;14.20;99.90
16966;DHT22;8599;47.852;12.070;2022-10-16T04:30:07;14.20;99.90
16966;DHT22;8599;47.852;12.070;2022-10-16T04:32:34;14.10;99.90
16966;DHT22;8599;47.852;12.070;2022-10-16T04:35:01;14.10;99.90
16966;DHT22;8599;47.852;12.070;2022-10-16T04:37:28;14.20;99.90
16966;DHT22;8599;47.852;12.070;2022-10-16T04:39:55;14.10;99.90
16966;DHT22;8599;47.852;12.070;2022-10-16T04:42:22;14.20;99.90
16966;DHT22;8599;47.852;12.070;2022-10-16T04:44:49;14.10;99.90
16966;DHT22;8599;47.852;12.070;2022-10-16T04:47:17;14.00;99.90
16966;DHT22;8599;47.852;12.070;2022-10-16T04:49:43;13.90;99.90
16966;DHT22;8599;47.852;12.070;2022-10-16T04:52:10;13.90;99.90
16966;DHT22;8599;47.852;12.070;2022-10-16T04:54:37;13.90;99.90
16966;DHT22;8599;47.852;12.070;2022-10-16T04:57:04;13.80;99.90
16966;DHT22;8599;47.852;12.070;2022-10-16T04:59:31;13.90;99.90
16966;DHT22;8599;47.852;12.070;2022-10-16T05:01:58;13.90;99.90
16966;DHT22;8599;47.852;12.070;2022-10-16T05:04:26;13.90;99.90
16966;DHT22;8599;47.852;12.070;2022-10-16T05:06:52;13.80;99.90
16966;DHT22;8599;47.852;12.070;2022-10-16T05:09:19;13.80;99.90
16966;DHT22;8599;47.852;12.070;2022-10-16T05:11:46;13.80;99.90
16966;DHT22;8599;47.852;12.070;2022-10-16T05:14:13;13.90;99.90
16966;DHT22;8599;47.852;12.070;2022-10-16T05:16:40;13.90;99.90
16966;DHT22;8599;47.852;12.070;2022-10-16T05:19:07;13.90;99.90
16966;DHT22;8599;47.852;12.070;2022-10-16T05:21:35;13.80;99.90
16966;DHT22;8599;47.852;12.070;2022-10-16T05:24:02;13.80;99.90
16966;DHT22;8599;47.852;12.070;2022-10-16T05:26:28;13.80;99.90
16966;DHT22;8599;47.852;12.070;2022-10-16T05:28:55;13.80;99.90
16966;DHT22;8599;47.852;12.070;2022-10-16T05:31:22;13.90;99.90
16966;DHT22;8599;47.852;12.070;2022-10-16T05:33:49;13.90;99.90
16966;DHT22;8599;47.852;12.070;2022-10-16T05:36:16;13.90;99.90
16966;DHT22;8599;47.852;12.070;2022-10-16T05:38:45;14.00;99.90
16966;DHT22;8599;47.852;12.070;2022-10-16T05:41:11;14.00;99.90
16966;DHT22;8599;47.852;12.070;2022-10-16T05:43:38;14.00;99.90
16966;DHT22;8599;47.852;12.070;2022-10-16T05:46:05;14.00;99.90
16966;DHT22;8599;47.852;12.070;2022-10-16T05:48:33;14.00;99.90
16966;DHT22;8599;47.852;12.070;2022-10-16T05:51:02;14.00;99.90
16966;DHT22;8599;47.852;12.070;2022-10-16T05:53:31;14.00;99.90
16966;DHT22;8599;47.852;12.070;2022-10-16T05:55:59;14.10;99.90
16966;DHT22;8599;47.852;12.070;2022-10-16T05:58:29;14.10;99.90
16966;DHT22;8599;47.852;12.070;2022-10-16T06:00:57;14.10;99.90
16966;DHT22;8599;47.852;12.070;2022-10-16T06:03:24;14.20;99.90
16966;DHT22;8599;47.852;12.070;2022-10-16T06:05:51;14.20;99.90
16966;DHT22;8599;47.852;12.070;2022-10-16T06:08:19;14.30;99.90
16966;DHT22;8599;47.852;12.070;2022-10-16T06:10:47;14.30;99.90
16966;DHT22;8599;47.852;12.070;2022-10-16T06:13:15;14.40;99.90
16966;DHT22;8599;47.852;12.070;2022-10-16T06:15:42;14.40;99.90
16966;DHT22;8599;47.852;12.070;2022-10-16T06:18:09;14.40;99.90
16966;DHT22;8599;47.852;12.070;2022-10-16T06:20:36;14.40;99.90
16966;DHT22;8599;47.852;12.070;2022-10-16T06:23:04;14.40;99.90
16966;DHT22;8599;47.852;12.070;2022-10-16T06:25:31;14.50;99.90
16966;DHT22;8599;47.852;12.070;2022-10-16T06:27:57;14.50;99.90
16966;DHT22;8599;47.852;12.070;2022-10-16T06:30:26;14.50;99.90
16966;DHT22;8599;47.852;12.070;2022-10-16T06:32:52;14.40;99.90
16966;DHT22;8599;47.852;12.070;2022-10-16T06:35:19;14.50;99.90
16966;DHT22;8599;47.852;12.070;2022-10-16T06:37:46;14.40;99.90
16966;DHT22;8599;47.852;12.070;2022-10-16T06:40:13;14.50;99.90
16966;DHT22;8599;47.852;12.070;2022-10-16T06:42:40;14.50;99.90
16966;DHT22;8599;47.852;12.070;2022-10-16T06:45:08;14.50;99.90
16966;DHT22;8599;47.852;12.070;2022-10-16T06:47:36;14.50;99.90
16966;DHT22;8599;47.852;12.070;2022-10-16T06:50:03;14.50;99.90
16966;DHT22;8599;47.852;12.070;2022-10-16T06:52:32;14.60;99.90
16966;DHT22;8599;47.852;12.070;2022-10-16T06:54:58;14.70;99.90
16966;DHT22;8599;47.852;12.070;2022-10-16T06:57:25;14.70;99.90
16966;DHT22;8599;47.852;12.070;2022-10-16T06:59:52;14.90;99.90
16966;DHT22;8599;47.852;12.070;2022-10-16T07:02:19;14.90;99.90
16966;DHT22;8599;47.852;12.070;2022-10-16T07:04:47;14.90;99.90
16966;DHT22;8599;47.852;12.070;2022-10-16T07:07:14;15.00;99.90
16966;DHT22;8599;47.852;12.070;2022-10-16T07:09:41;15.10;99.90
16966;DHT22;8599;47.852;12.070;2022-10-16T07:12:08;15.10;99.90
16966;DHT22;8599;47.852;12.070;2022-10-16T07:14:34;15.30;99.90
16966;DHT22;8599;47.852;12.070;2022-10-16T07:17:02;15.30;99.90
16966;DHT22;8599;47.852;12.070;2022-10-16T07:19:29;15.20;99.90
16966;DHT22;8599;47.852;12.070;2022-10-16T07:21:57;15.10;99.90
16966;DHT22;8599;47.852;12.070;2022-10-16T07:24:24;15.00;99.90
16966;DHT22;8599;47.852;12.070;2022-10-16T07:26:50;15.00;99.90
16966;DHT22;8599;47.852;12.070;2022-10-16T07:29:19;15.00;99.90
16966;DHT22;8599;47.852;12.070;2022-10-16T07:31:47;15.00;99.90
16966;DHT22;8599;47.852;12.070;2022-10-16T07:34:16;14.90;99.90
16966;DHT22;8599;47.852;12.070;2022-10-16T07:36:43;15.00;99.90
16966;DHT22;8599;47.852;12.070;2022-10-16T07:39:11;15.00;99.90
16966;DHT22;8599;47.852;12.070;2022-10-16T07:41:38;15.20;99.90
16966;DHT22;8599;47.852;12.070;2022-10-16T07:44:04;15.20;99.90
16966;DHT22;8599;47.852;12.070;2022-10-16T07:46:32;15.40;99.90
16966;DHT22;8599;47.852;12.070;2022-10-16T07:49:01;15.50;99.90
16966;DHT22;8599;47.852;12.070;2022-10-16T07:51:28;15.70;99.90
16966;DHT22;8599;47.852;12.070;2022-10-16T07:53:55;15.80;99.90
16966;DHT22;8599;47.852;12.070;2022-10-16T07:56:23;15.80;99.90
16966;DHT22;8599;47.852;12.070;2022-10-16T07:58:50;15.90;99.90
16966;DHT22;8599;47.852;12.070;2022-10-16T08:01:18;16.00;99.90
16966;DHT22;8599;47.852;12.070;2022-10-16T08:03:46;16.00;99.90
16966;DHT22;8599;47.852;12.070;2022-10-16T08:06:13;16.00;99.90
16966;DHT22;8599;47.852;12.070;2022-10-16T08:08:40;16.10;99.90
16966;DHT22;8599;47.852;12.070;2022-10-16T08:11:07;16.10;99.90
16966;DHT22;8599;47.852;12.070;2022-10-16T08:13:35;16.10;99.90
16966;DHT22;8599;47.852;12.070;2022-10-16T08:16:02;16.20;99.90
16966;DHT22;8599;47.852;12.070;2022-10-16T08:18:33;16.30;99.90
16966;DHT22;8599;47.852;12.070;2022-10-16T08:21:00;16.30;99.90
16966;DHT22;8599;47.852;12.070;2022-10-16T08:23:27;16.30;99.90
16966;DHT22;8599;47.852;12.070;2022-10-16T08:25:54;16.30;99.90
16966;DHT22;8599;47.852;12.070;2022-10-16T08:28:22;16.30;99.90
16966;DHT22;8599;47.852;12.070;2022-10-16T08:30:50;16.40;99.90
16966;DHT22;8599;47.852;12.070;2022-10-16T08:33:17;16.40;99.90
16966;DHT22;8599;47.852;12.070;2022-10-16T08:35:50;16.50;99.90
16966;DHT22;8599;47.852;12.070;2022-10-16T08:38:19;16.50;99.90
16966;DHT22;8599;47.852;12.070;2022-10-16T08:40:46;16.50;99.90
16966;DHT22;8599;47.852;12.070;2022-10-16T08:43:31;16.50;99.90
16966;DHT22;8599;47.852;12.070;2022-10-16T08:46:17;16.60;99.90
16966;DHT22;8599;47.852;12.070;2022-10-16T08:48:48;16.80;99.90
16966;DHT22;8599;47.852;12.070;2022-10-16T08:51:21;16.70;99.90
16966;DHT22;8599;47.852;12.070;2022-10-16T08:53:53;16.80;99.90
16966;DHT22;8599;47.852;12.070;2022-10-16T08:56:21;16.80;99.90
16966;DHT22;8599;47.852;12.070;2022-10-16T08:58:48;16.90;99.90
16966;DHT22;8599;47.852;12.070;2022-10-16T09:01:21;17.00;99.90
16966;DHT22;8599;47.852;12.070;2022-10-16T09:06:59;17.10;99.90
16966;DHT22;8599;47.852;12.070;2022-10-16T09:09:45;17.10;99.90
16966;DHT22;8599;47.852;12.070;2022-10-16T09:12:21;17.20;99.90
16966;DHT22;8599;47.852;12.070;2022-10-16T09:14:58;17.30;99.90
16966;DHT22;8599;47.852;12.070;2022-10-16T09:17:37;17.40;99.90
16966;DHT22;8599;47.852;12.070;2022-10-16T09:20:18;17.40;99.90
16966;DHT22;8599;47.852;12.070;2022-10-16T09:22:46;17.50;99.90
16966;DHT22;8599;47.852;12.070;2022-10-16T09:25:15;17.50;99.90
16966;DHT22;8599;47.852;12.070;2022-10-16T09:27:44;17.60;99.90
16966;DHT22;8599;47.852;12.070;2022-10-16T09:30:14;17.60;99.90
16966;DHT22;8599;47.852;12.070;2022-10-16T09:32:44;17.70;99.90
16966;DHT22;8599;47.852;12.070;2022-10-16T09:35:15;17.70;99.90
16966;DHT22;8599;47.852;12.070;2022-10-16T09:37:43;17.80;99.90
16966;DHT22;8599;47.852;12.070;2022-10-16T09:40:24;17.80;99.90
16966;DHT22;8599;47.852;12.070;2022-10-16T09:43:10;17.80;99.90
16966;DHT22;8599;47.852;12.070;2022-10-16T09:45:39;17.80;99.90
16966;DHT22;8599;47.852;12.070;2022-10-16T09:48:12;17.90;99.90
16966;DHT22;8599;47.852;12.070;2022-10-16T09:50:39;17.90;99.90
16966;DHT22;8599;47.852;12.070;2022-10-16T09:53:11;18.00;99.90
16966;DHT22;8599;47.852;12.070;2022-10-16T09:55:48;18.10;99.90
16966;DHT22;8599;47.852;12.070;2022-10-16T09:58:15;18.20;99.90
16966;DHT22;8599;47.852;12.070;2022-10-16T10:00:49;18.20;99.90
16966;DHT22;8599;47.852;12.070;2022-10-16T10:03:35;18.20;99.90
16966;DHT22;8599;47.852;12.070;2022-10-16T10:06:07;18.20;99.90
16966;DHT22;8599;47.852;12.070;2022-10-16T10:08:41;18.30;99.90
16966;DHT22;8599;47.852;12.070;2022-10-16T10:11:18;18.40;99.90
16966;DHT22;8599;47.852;12.070;2022-10-16T10:13:45;18.40;99.90
16966;DHT22;8599;47.852;12.070;2022-10-16T10:16:12;18.50;99.90
16966;DHT22;8599;47.852;12.070;2022-10-16T10:18:40;18.50;99.90
16966;DHT22;8599;47.852;12.070;2022-10-16T10:21:14;18.60;99.90
16966;DHT22;8599;47.852;12.070;2022-10-16T10:23:43;18.60;99.90
16966;DHT22;8599;47.852;12.070;2022-10-16T10:26:12;18.70;99.90
16966;DHT22;8599;47.852;12.070;2022-10-16T10:28:50;18.80;99.90
16966;DHT22;8599;47.852;12.070;2022-10-16T10:31:25;18.80;99.90
16966;DHT22;8599;47.852;12.070;2022-10-16T10:33:59;18.90;99.90
16966;DHT22;8599;47.852;12.070;2022-10-16T10:36:41;18.90;99.90
16966;DHT22;8599;47.852;12.070;2022-10-16T10:39:11;18.90;99.90
16966;DHT22;8599;47.852;12.070;2022-10-16T10:45:04;19.10;99.90
16966;DHT22;8599;47.852;12.070;2022-10-16T10:47:43;19.20;99.90
16966;DHT22;8599;47.852;12.070;2022-10-16T10:50:20;19.30;99.90
16966;DHT22;8599;47.852;12.070;2022-10-16T10:52:58;19.30;99.90
16966;DHT22;8599;47.852;12.070;2022-10-16T10:55:33;19.30;99.90
16966;DHT22;8599;47.852;12.070;2022-10-16T11:01:08;19.30;99.90
16966;DHT22;8599;47.852;12.070;2022-10-16T11:03:46;19.40;99.90
16966;DHT22;8599;47.852;12.070;2022-10-16T11:06:22;19.40;99.90
16966;DHT22;8599;47.852;12.070;2022-10-16T11:08:53;19.40;99.90
16966;DHT22;8599;47.852;12.070;2022-10-16T11:11:25;19.50;99.90
16966;DHT22;8599;47.852;12.070;2022-10-16T11:13:57;19.60;99.90
16966;DHT22;8599;47.852;12.070;2022-10-16T11:16:28;19.70;99.90
16966;DHT22;8599;47.852;12.070;2022-10-16T11:19:01;19.80;99.90
16966;DHT22;8599;47.852;12.070;2022-10-16T11:21:42;19.90;99.90
16966;DHT22;8599;47.852;12.070;2022-10-16T11:24:18;20.10;99.90
16966;DHT22;8599;47.852;12.070;2022-10-16T11:26:47;20.20;99.90
16966;DHT22;8599;47.852;12.070;2022-10-16T11:29:19;20.20;99.90
16966;DHT22;8599;47.852;12.070;2022-10-16T11:31:50;20.30;99.90
16966;DHT22;8599;47.852;12.070;2022-10-16T11:34:24;20.30;99.90
16966;DHT22;8599;47.852;12.070;2022-10-16T11:36:57;20.40;99.90
16966;DHT22;8599;47.852;12.070;2022-10-16T11:39:27;20.50;99.90
16966;DHT22;8599;47.852;12.070;2022-10-16T11:42:01;20.60;99.90
16966;DHT22;8599;47.852;12.070;2022-10-16T11:44:39;20.70;99.90
16966;DHT22;8599;47.852;12.070;2022-10-16T11:47:16;20.80;99.90
16966;DHT22;8599;47.852;12.070;2022-10-16T11:49:47;20.90;99.90
16966;DHT22;8599;47.852;12.070;2022-10-16T11:52:23;21.00;99.90
16966;DHT22;8599;47.852;12.070;2022-10-16T11:54:54;21.10;99.90
16966;DHT22;8599;47.852;12.070;2022-10-16T11:57:25;21.10;99.90
16966;DHT22;8599;47.852;12.070;2022-10-16T11:59:55;21.20;99.90
16966;DHT22;8599;47.852;12.070;2022-10-16T12:02:31;21.30;99.90
16966;DHT22;8599;47.852;12.070;2022-10-16T12:05:07;21.30;99.90
16966;DHT22;8599;47.852;12.070;2022-10-16T12:07:45;21.50;99.90
16966;DHT22;8599;47.852;12.070;2022-10-16T12:10:21;21.60;99.90
16966;DHT22;8599;47.852;12.070;2022-10-16T12:12:48;21.70;99.90
16966;DHT22;8599;47.852;12.070;2022-10-16T12:15:21;21.80;99.90
16966;DHT22;8599;47.852;12.070;2022-10-16T12:17:48;22.00;99.90
16966;DHT22;8599;47.852;12.070;2022-10-16T12:20:24;22.20;99.90
16966;DHT22;8599;47.852;12.070;2022-10-16T12:22:55;22.30;99.90
16966;DHT22;8599;47.852;12.070;2022-10-16T12:25:26;22.40;99.90
16966;DHT22;8599;47.852;12.070;2022-10-16T12:27:59;22.50;99.90
16966;DHT22;8599;47.852;12.070;2022-10-16T12:30:28;22.60;99.90
16966;DHT22;8599;47.852;12.070;2022-10-16T12:32:56;22.70;99.90
16966;DHT22;8599;47.852;12.070;2022-10-16T12:35:27;22.80;99.90
16966;DHT22;8599;47.852;12.070;2022-10-16T12:38:05;22.90;99.90
16966;DHT22;8599;47.852;12.070;2022-10-16T12:40:34;23.00;99.90
16966;DHT22;8599;47.852;12.070;2022-10-16T12:43:12;23.10;99.90
16966;DHT22;8599;47.852;12.070;2022-10-16T12:45:39;23.20;99.90
16966;DHT22;8599;47.852;12.070;2022-10-16T12:48:19;23.30;99.90
16966;DHT22;8599;47.852;12.070;2022-10-16T12:50:46;23.50;99.90
16966;DHT22;8599;47.852;12.070;2022-10-16T12:53:23;23.50;99.90
16966;DHT22;8599;47.852;12.070;2022-10-16T12:56:03;23.60;99.90
16966;DHT22;8599;47.852;12.070;2022-10-16T12:58:45;23.80;99.90
16966;DHT22;8599;47.852;12.070;2022-10-16T13:01:25;23.90;99.90
16966;DHT22;8599;47.852;12.070;2022-10-16T13:04:10;24.00;99.90
16966;DHT22;8599;47.852;12.070;2022-10-16T13:06:45;24.20;99.90
16966;DHT22;8599;47.852;12.070;2022-10-16T13:09:29;24.30;99.90
16966;DHT22;8599;47.852;12.070;2022-10-16T13:12:36;24.40;99.90
16966;DHT22;8599;47.852;12.070;2022-10-16T13:15:26;24.70;99.90
16966;DHT22;8599;47.852;12.070;2022-10-16T13:18:02;24.90;99.90
16966;DHT22;8599;47.852;12.070;2022-10-16T13:20:35;25.10;99.90
16966;DHT22;8599;47.852;12.070;2022-10-16T13:23:13;25.10;99.90
16966;DHT22;8599;47.852;12.070;2022-10-16T13:25:54;25.40;99.90
16966;DHT22;8599;47.852;12.070;2022-10-16T13:28:29;25.50;99.90
16966;DHT22;8599;47.852;12.070;2022-10-16T13:30:58;25.70;99.90
16966;DHT22;8599;47.852;12.070;2022-10-16T13:33:31;25.90;99.90
16966;DHT22;8599;47.852;12.070;2022-10-16T13:35:58;26.00;99.90
16966;DHT22;8599;47.852;12.070;2022-10-16T13:38:27;26.10;99.80
16966;DHT22;8599;47.852;12.070;2022-10-16T13:40:57;26.10;97.80
16966;DHT22;8599;47.852;12.070;2022-10-16T13:43:27;26.30;98.00
16966;DHT22;8599;47.852;12.070;2022-10-16T13:45:57;26.40;97.40
16966;DHT22;8599;47.852;12.070;2022-10-16T13:48:24;26.50;98.70
16966;DHT22;8599;47.852;12.070;2022-10-16T13:51:03;26.50;97.80
16966;DHT22;8599;47.852;12.070;2022-10-16T13:53:31;26.60;97.40
16966;DHT22;8599;47.852;12.070;2022-10-16T13:56:02;26.70;97.70
16966;DHT22;8599;47.852;12.070;2022-10-16T13:58:29;26.90;97.10
16966;DHT22;8599;47.852;12.070;2022-10-16T14:00:57;27.00;97.30
16966;DHT22;8599;47.852;12.070;2022-10-16T14:03:25;27.00;97.10
16966;DHT22;8599;47.852;12.070;2022-10-16T14:05:54;27.00;95.90
16966;DHT22;8599;47.852;12.070;2022-10-16T14:08:22;27.10;96.40
16966;DHT22;8599;47.852;12.070;2022-10-16T14:10:52;27.20;96.30
16966;DHT22;8599;47.852;12.070;2022-10-16T14:13:27;27.30;96.60
16966;DHT22;8599;47.852;12.070;2022-10-16T14:15:55;27.50;96.80
16966;DHT22;8599;47.852;12.070;2022-10-16T14:18:25;27.50;95.30
16966;DHT22;8599;47.852;12.070;2022-10-16T14:20:54;27.50;95.00
16966;DHT22;8599;47.852;12.070;2022-10-16T14:23:23;27.30;92.10
16966;DHT22;8599;47.852;12.070;2022-10-16T14:26:04;27.10;93.20
16966;DHT22;8599;47.852;12.070;2022-10-16T14:28:32;27.10;93.20
16966;DHT22;8599;47.852;12.070;2022-10-16T14:31:00;27.00;93.00
16966;DHT22;8599;47.852;12.070;2022-10-16T14:33:33;27.10;92.80
16966;DHT22;8599;47.852;12.070;2022-10-16T14:36:04;26.90;92.80
16966;DHT22;8599;47.852;12.070;2022-10-16T14:38:32;26.90;92.60
16966;DHT22;8599;47.852;12.070;2022-10-16T14:40:59;26.90;91.80
16966;DHT22;8599;47.852;12.070;2022-10-16T14:43:33;27.00;91.10
16966;DHT22;8599;47.852;12.070;2022-10-16T14:46:01;26.80;91.70
16966;DHT22;8599;47.852;12.070;2022-10-16T14:48:29;26.80;92.00
16966;DHT22;8599;47.852;12.070;2022-10-16T14:50:56;26.80;91.90
16966;DHT22;8599;47.852;12.070;2022-10-16T14:53:23;26.80;92.00
16966;DHT22;8599;47.852;12.070;2022-10-16T14:55:50;26.80;92.20
16966;DHT22;8599;47.852;12.070;2022-10-16T14:58:20;26.80;92.50
16966;DHT22;8599;47.852;12.070;2022-10-16T15:00:49;26.60;92.90
16966;DHT22;8599;47.852;12.070;2022-10-16T15:03:16;26.40;93.20
16966;DHT22;8599;47.852;12.070;2022-10-16T15:05:42;26.30;92.90
16966;DHT22;8599;47.852;12.070;2022-10-16T15:08:09;25.90;93.40
16966;DHT22;8599;47.852;12.070;2022-10-16T15:10:39;25.60;93.70
16966;DHT22;8599;47.852;12.070;2022-10-16T15:13:11;25.30;94.20
16966;DHT22;8599;47.852;12.070;2022-10-16T15:15:40;25.10;94.80
16966;DHT22;8599;47.852;12.070;2022-10-16T15:18:09;24.80;95.60
16966;DHT22;8599;47.852;12.070;2022-10-16T15:20:38;24.60;96.40
16966;DHT22;8599;47.852;12.070;2022-10-16T15:23:09;24.30;96.80
16966;DHT22;8599;47.852;12.070;2022-10-16T15:25:39;24.00;97.00
16966;DHT22;8599;47.852;12.070;2022-10-16T15:28:09;23.80;97.50
16966;DHT22;8599;47.852;12.070;2022-10-16T15:30:36;23.60;98.10
16966;DHT22;8599;47.852;12.070;2022-10-16T15:33:04;23.40;99.30
16966;DHT22;8599;47.852;12.070;2022-10-16T15:35:33;23.30;99.90
16966;DHT22;8599;47.852;12.070;2022-10-16T15:37:59;23.10;99.90
16966;DHT22;8599;47.852;12.070;2022-10-16T15:40:26;22.90;99.90
16966;DHT22;8599;47.852;12.070;2022-10-16T15:42:53;22.80;99.90
16966;DHT22;8599;47.852;12.070;2022-10-16T15:45:20;22.70;99.90
16966;DHT22;8599;47.852;12.070;2022-10-16T15:47:47;22.50;99.90
16966;DHT22;8599;47.852;12.070;2022-10-16T15:50:15;22.40;99.90
16966;DHT22;8599;47.852;12.070;2022-10-16T15:52:43;22.20;99.90
16966;DHT22;8599;47.852;12.070;2022-10-16T15:55:12;22.10;99.90
16966;DHT22;8599;47.852;12.070;2022-10-16T15:57:39;21.90;99.90